Huvudsida
METAR-TAF:

METAR-TAF

Flygplatser :

Skaraborgs flygflottilj

Såtenäs, Sverige

latitud: 58-26N, longitud: 012-42E, höjd: 54 m

Aktuellt väderrapport

Denna rapport gjordes för 35 minuter sedan, klockan 11:20 UTC
Vind 12 kt från nord/nordost
Temperatur 3°C
Fuktighet 87%
Tryck 1019 hPa
Sikt 10 km eller mer
Brutna moln på en höjd av 1500 ft

METAR: ESIB 111120Z 03012KT 9999 BKN015 03/01 Q1019

Tid: 12:55 (11:55 UTC)

Väderprognos

Denna rapport gjordes för 55 minuter sedan, klockan 11:00 UTC
Prognos gäller från 11 kl. 12 UTC till 11 kl. 16 UTC
Vind 12 kt från nord/nordost i byarna ända upp till 22 kt
Sikt 10 km eller mer
Brutna moln på en höjd av 1500 ft
Sannolikhet 30%
från 11 kl. 12 UTC till 11 kl. 16 UTC
Sikt: 8000 m
Brutna moln på en höjd av 1200 ft
lätt regn, snö

TAF: ESIB 111100Z 1112/1116 02012G22KT 9999 BKN015 PROB30 1112/1116 8000 -RASN BKN012 RMK MIL

Aktuella väderrapporter och prognoser från 4000 flygplatser (METAR- och TAF-rapporter).

De tillgängliga stationerna syns som gula och röda prickar på kartan.

För musen över prickarna för att se namnen på stationerna.

Klicka sedan för att få väderrapporter och prognoser.

För att ändra kartan: Klicka på de gröna knapparna med ett svart kors på för att zooma in; den gröna knappen med ett streck på för att zooma ut; eller på de gröna pilarna för angränsande kartor.


METAR-TAF: